Terminal Aerodrome Forecast
Issued by NWS

Home | Current Version | Previous Version | Text Only | Print | Product List | Glossary On
Versions: 1 2 3 4 5 6 7 8 9 10 11 12
000
FTUS45 KREV 301700
TAFRNO
TAF
KRNO 301739Z 3018/3118 VRB04KT P6SM SCT150 OVC200
     FM302100 18010G18KT P6SM SCT120 OVC200
     FM310400 17008KT P6SM SCT100 OVC180=

USA.gov is the U.S. government's official web portal to all federal, state and local government web resources and services.